This demonstration page uses our WeatherBlox Daily Observations layout. Learn more.

41.55636, -103.73856

Hourly Observations for May 17, 2018

Temp ( °F °C ) Dew Point ( °F °C ) Humidity (%) Winds ( mph kmh ) Pressure ( in mb ) Visibility ( mi km ) Precip ( " mm )
12:58 am 00:58 Clear 52 11 47 8.3 84 84 SSE 9 15 29.88 1012 10 16.0934 N/A
1:58 am 01:58 Clear 51 10.7 47 8.6 87 87 SSE 9 15 29.85 1011 10 16.0934 N/A
2:58 am 02:58 Clear 53 11.6 48 9.1 85 85 SSE 10 17 29.84 1011 10 16.0934 N/A
3:58 am 03:58 Clear 51 10.5 48 8.8 89 89 SSE 12 19 29.83 1010 10 16.0934 N/A
4:58 am 04:58 Clear 53 11.6 50 10.1 91 91 S 10 17 29.82 1010 10 16.0934 N/A
5:58 am 05:58 Sunny 54 12.2 51 10.5 89 89 S 13 20 29.82 1010 10 16.0934 N/A
6:58 am 06:58 Sunny 58 14.2 53 11.7 85 85 S 12 19 29.8 1009 10 16.0934 N/A
7:58 am 07:58 Sunny 62 16.8 54 12.4 75 75 SSW 17 28 29.8 1009 10 16.0934 N/A
8:58 am 08:58 Sunny 66 19.1 55 13 68 68 SSW 15 24 29.79 1009 10 16.0934 N/A
9:58 am 09:58 Sunny 72 22 54 12.2 54 54 S 18 30 29.77 1008 10 16.0934 N/A
10:58 am 10:58 Sunny 73 22.8 53 11.7 50 50 SSE 23 37 29.77 1008 10 16.0934 N/A
11:56 am 11:56 Sunny 74 23.6 54 12.2 49 49 SSE 21 33 29.74 1007 10 16.0934 N/A
12:58 pm 12:58 Sunny 77 25 51 10.7 41 41 SSE 25 41 29.73 1007 10 16.0934 N/A
1:58 pm 13:58 Sunny 79 26.1 51 10.3 37 37 SSE 20 31 29.7 1006 10 16.0934 N/A
2:58 pm 14:58 Sunny 80 26.7 48 8.9 33 33 SSE 18 30 29.68 1005 10 16.0934 N/A
3:59 pm 15:59 Sunny 81 27.4 46 7.5 28 28 SSE 16 26 29.66 1004 10 16.0934 N/A
4:58 pm 16:58 Mostly Cloudy with Nearby Thunderstorms 77 24.9 44 6.5 31 31 SSE 24 39 29.6 1003 10 16.0934 N/A
5:58 pm 17:58 Mostly Cloudy 74 23.6 37 3 26 26 S 29 46 29.6 1003 10 16.0934 N/A
6:58 pm 18:58 Mostly Cloudy 69 20.4 38 3.2 32 32 S 16 26 29.61 1003 10 16.0934 N/A
7:58 pm 19:58 Mostly Cloudy 65 18.2 41 5 42 42 SSE 9 15 29.62 1003 10 16.0934 N/A
8:58 pm 20:58 Mostly Cloudy 62 16.5 44 6.6 52 52 SE 9 15 29.65 1004 10 16.0934 N/A
9:58 pm 21:58 Mostly Cloudy 61 16 44 6.7 54 54 N 10 17 29.7 1006 10 16.0934 N/A
10:58 pm 22:58 Mostly Cloudy with Heavy Thunderstorms 57 14.1 49 9.6 75 75 NNE 21 33 29.71 1006 10 16.0934 0.02 0.508
11:58 pm 23:58 Cloudy with Thunderstorms 51 10.6 49 9.4 92 92 NNE 18 30 29.8 1009 10 16.0934 0.33 8.382

Powered by AerisWeather